Time;durP1;ratioP1;P1;durP2;ratioP2;P2;SDS_P1;SDS_P2;PMS_P1;PMS_P2;Temp;Humidity;BMP_temperature;BMP_pressure;BME280_temperature;BME280_humidity;BME280_pressure;Samples;Min_cycle;Max_cycle;Signal;HPM_P1;HPM_P2
2022/07/16 00:01:29;;;;;;;3.75;3.00;;;;;;;;;;5275681;28;20025;-85
2022/07/16 00:04:00;;;;;;;7.35;3.53;;;;;;;;;;5279269;28;20033;-85
2022/07/16 00:06:31;;;;;;;6.70;3.47;;;;;;;;;;5264502;28;20140;-85
2022/07/16 00:09:03;;;;;;;6.13;3.10;;;;;;;;;;5278143;28;20087;-85
2022/07/16 00:11:38;;;;;;;10.38;3.10;;;;;;;;;;5267873;28;20308;-85
2022/07/16 00:14:09;;;;;;;7.65;3.38;;;;;;;;;;5281939;28;20111;-85
2022/07/16 00:16:40;;;;;;;4.23;2.67;;;;;;;;;;5270308;28;20020;-85
2022/07/16 00:19:18;;;;;;;5.33;2.97;;;;;;;;;;5277348;28;20809;-83
2022/07/16 00:21:51;;;;;;;5.07;2.80;;;;;;;;;;5263792;28;20267;-84
2022/07/16 00:24:23;;;;;;;4.72;2.60;;;;;;;;;;5281091;28;20563;-84
2022/07/16 00:26:54;;;;;;;7.75;3.45;;;;;;;;;;5264929;28;20086;-84
2022/07/16 00:29:25;;;;;;;6.85;3.10;;;;;;;;;;5287274;28;20384;-84
2022/07/16 00:31:56;;;;;;;5.07;3.00;;;;;;;;;;5282142;28;20535;-84
2022/07/16 00:34:28;;;;;;;7.33;2.73;;;;;;;;;;5267278;28;20039;-84
2022/07/16 00:36:59;;;;;;;4.03;2.60;;;;;;;;;;5264386;28;20283;-84
2022/07/16 00:39:30;;;;;;;4.93;2.80;;;;;;;;;;5272290;28;20033;-84
2022/07/16 00:42:02;;;;;;;4.65;2.80;;;;;;;;;;5260129;28;20124;-84
2022/07/16 00:44:33;;;;;;;5.20;2.80;;;;;;;;;;5270626;28;20090;-84
2022/07/16 00:47:04;;;;;;;2.60;2.40;;;;;;;;;;5276536;28;20104;-84
2022/07/16 00:49:35;;;;;;;5.55;3.30;;;;;;;;;;5280077;28;20029;-85
2022/07/16 00:52:07;;;;;;;3.90;2.80;;;;;;;;;;5280394;28;20488;-85
2022/07/16 00:54:38;;;;;;;7.68;3.30;;;;;;;;;;5268653;28;20108;-85
2022/07/16 00:57:10;;;;;;;6.63;3.40;;;;;;;;;;5258896;28;20382;-84
2022/07/16 00:59:41;;;;;;;4.88;3.10;;;;;;;;;;5263915;28;20017;-85
2022/07/16 01:02:12;;;;;;;6.70;3.30;;;;;;;;;;5266053;28;20032;-85
2022/07/16 01:04:43;;;;;;;5.60;3.30;;;;;;;;;;5266144;28;20239;-85
2022/07/16 01:07:16;;;;;;;9.88;3.63;;;;;;;;;;5265023;28;20297;-85
2022/07/16 01:09:47;;;;;;;5.65;3.63;;;;;;;;;;5267652;28;20090;-84
2022/07/16 01:12:19;;;;;;;5.32;3.03;;;;;;;;;;5280680;28;20053;-85
2022/07/16 01:14:50;;;;;;;5.25;3.38;;;;;;;;;;5277666;28;20028;-84
2022/07/16 01:17:21;;;;;;;4.22;3.35;;;;;;;;;;5261857;28;20031;-85
2022/07/16 01:19:53;;;;;;;7.23;3.70;;;;;;;;;;5266546;28;20502;-85
2022/07/16 01:22:25;;;;;;;4.93;3.50;;;;;;;;;;5288908;28;20247;-84
2022/07/16 01:24:56;;;;;;;6.35;3.65;;;;;;;;;;5281716;28;20036;-84
2022/07/16 01:27:27;;;;;;;6.55;3.20;;;;;;;;;;5266042;28;20048;-85
2022/07/16 01:29:58;;;;;;;4.13;3.20;;;;;;;;;;5260450;28;20021;-85
2022/07/16 01:32:30;;;;;;;5.38;3.33;;;;;;;;;;5277876;28;20032;-85
2022/07/16 01:35:02;;;;;;;10.65;3.35;;;;;;;;;;5278679;28;20478;-85
2022/07/16 01:37:36;;;;;;;7.97;3.40;;;;;;;;;;5268798;28;20032;-85
2022/07/16 01:40:08;;;;;;;4.32;3.22;;;;;;;;;;5263342;28;20034;-85
2022/07/16 01:42:42;;;;;;;5.82;3.42;;;;;;;;;;5269949;28;20017;-84
2022/07/16 01:45:13;;;;;;;4.05;3.30;;;;;;;;;;5274281;28;20112;-84
2022/07/16 01:47:44;;;;;;;4.07;3.30;;;;;;;;;;5279659;28;20055;-85
2022/07/16 01:50:15;;;;;;;4.88;3.22;;;;;;;;;;5261138;28;20116;-85
2022/07/16 01:52:47;;;;;;;6.57;3.83;;;;;;;;;;5264416;28;20081;-84
2022/07/16 01:55:18;;;;;;;6.15;3.20;;;;;;;;;;5261590;28;20040;-84
2022/07/16 01:57:50;;;;;;;6.47;3.40;;;;;;;;;;5267288;28;20068;-85
2022/07/16 02:00:21;;;;;;;8.65;3.22;;;;;;;;;;5262583;28;20017;-84
2022/07/16 02:02:53;;;;;;;4.70;3.38;;;;;;;;;;5278049;28;20037;-85
2022/07/16 02:05:24;;;;;;;6.50;3.50;;;;;;;;;;5267727;28;20478;-84
2022/07/16 02:07:56;;;;;;;6.07;3.63;;;;;;;;;;5266180;28;21427;-84
2022/07/16 02:10:30;;;;;;;5.43;3.20;;;;;;;;;;5262971;28;20527;-85
2022/07/16 02:13:02;;;;;;;7.85;3.95;;;;;;;;;;5280254;28;20160;-84
2022/07/16 02:15:36;;;;;;;7.05;3.60;;;;;;;;;;5280390;28;20119;-84
2022/07/16 02:18:08;;;;;;;5.38;3.90;;;;;;;;;;5278494;28;20037;-84
2022/07/16 02:20:39;;;;;;;5.90;3.88;;;;;;;;;;5275997;28;20041;-84
2022/07/16 02:23:11;;;;;;;8.07;3.83;;;;;;;;;;5277839;28;20028;-84
2022/07/16 02:25:42;;;;;;;4.22;3.72;;;;;;;;;;5279234;28;20040;-84
2022/07/16 02:28:13;;;;;;;7.18;4.03;;;;;;;;;;5266964;28;20150;-84
2022/07/16 02:30:47;;;;;;;5.97;3.92;;;;;;;;;;5266798;28;20031;-84
2022/07/16 02:33:20;;;;;;;5.05;3.90;;;;;;;;;;5263154;28;20477;-85
2022/07/16 02:35:51;;;;;;;5.07;4.43;;;;;;;;;;5280966;28;20066;-84
2022/07/16 02:38:22;;;;;;;6.03;4.15;;;;;;;;;;5279146;28;20128;-84
2022/07/16 02:40:54;;;;;;;6.75;4.18;;;;;;;;;;5282394;28;20087;-84
2022/07/16 02:43:25;;;;;;;4.90;3.65;;;;;;;;;;5283245;28;20350;-84
2022/07/16 02:45:56;;;;;;;5.72;4.18;;;;;;;;;;5281200;28;20024;-84
2022/07/16 02:48:28;;;;;;;8.73;4.68;;;;;;;;;;5281222;28;20043;-84
2022/07/16 02:50:59;;;;;;;5.05;4.30;;;;;;;;;;5295944;28;20017;-84
2022/07/16 02:53:30;;;;;;;6.50;4.40;;;;;;;;;;5300201;28;20048;-85
2022/07/16 02:56:01;;;;;;;6.88;4.25;;;;;;;;;;5276018;28;20033;-84
2022/07/16 02:58:33;;;;;;;6.13;4.50;;;;;;;;;;5292167;28;20033;-84
2022/07/16 03:01:04;;;;;;;4.72;4.28;;;;;;;;;;5291244;28;20589;-84
2022/07/16 03:03:35;;;;;;;6.70;4.53;;;;;;;;;;5266653;28;20033;-84
2022/07/16 03:06:07;;;;;;;7.38;4.38;;;;;;;;;;5280722;28;20017;-85
2022/07/16 03:08:38;;;;;;;8.25;4.70;;;;;;;;;;5280740;28;20029;-85
2022/07/16 03:11:09;;;;;;;7.82;4.90;;;;;;;;;;5268077;28;20116;-84
2022/07/16 03:13:40;;;;;;;10.95;5.50;;;;;;;;;;5260825;28;20048;-84
2022/07/16 03:16:15;;;;;;;6.28;4.65;;;;;;;;;;5258031;28;20402;-84
2022/07/16 03:18:46;;;;;;;6.68;5.05;;;;;;;;;;5279402;28;20033;-83
2022/07/16 03:21:17;;;;;;;9.03;4.73;;;;;;;;;;5282788;28;20453;-84
2022/07/16 03:23:48;;;;;;;6.00;4.93;;;;;;;;;;5281924;28;20302;-84
2022/07/16 03:26:19;;;;;;;8.80;4.67;;;;;;;;;;5278096;28;20428;-84
2022/07/16 03:28:51;;;;;;;6.53;5.40;;;;;;;;;;5281365;28;20389;-84
2022/07/16 03:31:22;;;;;;;8.93;5.00;;;;;;;;;;5281022;28;20299;-84
2022/07/16 03:33:53;;;;;;;5.13;4.63;;;;;;;;;;5279989;28;20146;-84
2022/07/16 03:36:26;;;;;;;7.40;4.50;;;;;;;;;;5278246;28;20384;-84
2022/07/16 03:38:59;;;;;;;7.88;5.05;;;;;;;;;;5276455;28;20406;-84
2022/07/16 03:41:34;;;;;;;5.57;4.93;;;;;;;;;;5276317;28;20083;-84
2022/07/16 03:44:08;;;;;;;4.60;3.78;;;;;;;;;;5265108;28;20048;-84
2022/07/16 03:46:39;;;;;;;6.68;5.15;;;;;;;;;;5284599;28;20275;-84
2022/07/16 03:49:11;;;;;;;8.05;5.35;;;;;;;;;;5283840;28;20028;-84
2022/07/16 03:51:42;;;;;;;10.07;5.35;;;;;;;;;;5272615;28;20100;-84
2022/07/16 03:54:13;;;;;;;8.07;5.23;;;;;;;;;;5282958;28;20033;-84
2022/07/16 03:56:44;;;;;;;6.23;5.40;;;;;;;;;;5268253;28;20279;-84
2022/07/16 03:59:16;;;;;;;9.37;5.63;;;;;;;;;;5265477;28;20795;-84
2022/07/16 04:01:47;;;;;;;6.97;5.35;;;;;;;;;;5273309;28;20370;-84
2022/07/16 04:04:20;;;;;;;6.37;5.77;;;;;;;;;;5283913;28;20025;-84
2022/07/16 04:06:51;;;;;;;8.65;5.82;;;;;;;;;;5255328;28;20358;-84
2022/07/16 04:09:23;;;;;;;8.70;5.30;;;;;;;;;;5273905;28;20052;-85
2022/07/16 04:11:55;;;;;;;6.97;4.53;;;;;;;;;;5279693;28;20031;-84
2022/07/16 04:14:26;;;;;;;9.57;5.75;;;;;;;;;;5286491;28;20274;-84
2022/07/16 04:16:57;;;;;;;9.10;6.10;;;;;;;;;;5279842;28;20021;-84
2022/07/16 04:19:29;;;;;;;8.13;5.63;;;;;;;;;;5278682;28;20032;-84
2022/07/16 04:22:00;;;;;;;6.77;6.07;;;;;;;;;;5277855;28;20028;-84
2022/07/16 04:24:31;;;;;;;6.70;5.20;;;;;;;;;;5272914;28;20314;-84
2022/07/16 04:27:02;;;;;;;9.73;6.05;;;;;;;;;;5284040;28;20746;-84
2022/07/16 04:29:33;;;;;;;6.68;5.38;;;;;;;;;;5270140;28;20116;-84
2022/07/16 04:32:05;;;;;;;6.50;5.13;;;;;;;;;;5276137;28;20021;-84
2022/07/16 04:34:37;;;;;;;6.18;5.55;;;;;;;;;;5279818;28;20040;-84
2022/07/16 04:37:08;;;;;;;6.32;5.25;;;;;;;;;;5271470;28;20128;-84
2022/07/16 04:39:39;;;;;;;7.68;5.90;;;;;;;;;;5281174;28;20449;-84
2022/07/16 04:42:10;;;;;;;8.87;5.47;;;;;;;;;;5278935;28;20048;-84
2022/07/16 04:44:42;;;;;;;8.37;5.90;;;;;;;;;;5274594;28;20748;-84
2022/07/16 04:47:13;;;;;;;7.53;6.18;;;;;;;;;;5279063;28;20392;-83
2022/07/16 04:49:44;;;;;;;9.82;5.53;;;;;;;;;;5279503;28;20040;-83
2022/07/16 04:52:15;;;;;;;6.17;4.97;;;;;;;;;;5275768;28;20098;-84
2022/07/16 04:54:46;;;;;;;10.23;5.70;;;;;;;;;;5274278;28;20889;-84
2022/07/16 04:57:17;;;;;;;7.50;5.40;;;;;;;;;;5267253;28;20334;-83
2022/07/16 04:59:49;;;;;;;6.20;5.00;;;;;;;;;;5278682;28;20288;-83
2022/07/16 05:05:10;;;;;;;7.93;5.40;;;;;;;;;;5279682;28;20493;-84
2022/07/16 05:07:41;;;;;;;9.13;5.10;;;;;;;;;;5268623;28;20082;-84
2022/07/16 05:10:12;;;;;;;10.45;4.85;;;;;;;;;;5267409;28;20390;-84
2022/07/16 05:12:44;;;;;;;9.52;5.10;;;;;;;;;;5267074;28;20037;-84
2022/07/16 05:15:15;;;;;;;10.43;4.68;;;;;;;;;;5264263;28;20413;-84
2022/07/16 05:17:47;;;;;;;8.93;4.80;;;;;;;;;;5274795;28;20047;-84
2022/07/16 05:20:18;;;;;;;9.52;5.47;;;;;;;;;;5285290;28;20024;-84
2022/07/16 05:22:50;;;;;;;6.30;4.88;;;;;;;;;;5277585;28;20036;-84
2022/07/16 05:25:22;;;;;;;7.18;4.95;;;;;;;;;;5279090;28;20199;-84
2022/07/16 05:27:53;;;;;;;6.25;4.85;;;;;;;;;;5265745;28;20113;-83
2022/07/16 05:30:24;;;;;;;11.33;5.50;;;;;;;;;;5283676;28;20028;-83
2022/07/16 05:32:55;;;;;;;8.30;5.00;;;;;;;;;;5268542;28;20363;-83
2022/07/16 05:35:26;;;;;;;9.23;4.68;;;;;;;;;;5272493;28;20029;-84
2022/07/16 05:37:57;;;;;;;7.22;4.75;;;;;;;;;;5258388;28;21331;-83
2022/07/16 05:40:29;;;;;;;8.77;4.57;;;;;;;;;;5271917;28;20040;-84
2022/07/16 05:43:00;;;;;;;8.60;3.83;;;;;;;;;;5281350;28;20116;-84
2022/07/16 05:45:31;;;;;;;5.33;3.40;;;;;;;;;;5280960;28;20499;-84
2022/07/16 05:48:03;;;;;;;7.55;3.38;;;;;;;;;;5282876;28;20291;-84
2022/07/16 05:50:34;;;;;;;7.93;3.38;;;;;;;;;;5283329;28;20028;-84
2022/07/16 05:53:05;;;;;;;5.27;3.03;;;;;;;;;;5284125;28;20391;-84
2022/07/16 05:55:36;;;;;;;8.00;2.50;;;;;;;;;;5266424;28;20282;-86
2022/07/16 05:58:07;;;;;;;8.13;2.47;;;;;;;;;;5279983;28;20033;-83
2022/07/16 06:00:39;;;;;;;5.87;2.60;;;;;;;;;;5266915;28;20272;-84
2022/07/16 06:03:10;;;;;;;5.85;2.80;;;;;;;;;;5284927;28;20299;-84
2022/07/16 06:05:41;;;;;;;6.47;2.57;;;;;;;;;;5282032;28;20040;-84
2022/07/16 06:08:12;;;;;;;7.17;2.20;;;;;;;;;;5265356;28;20280;-84
2022/07/16 06:10:44;;;;;;;2.87;1.60;;;;;;;;;;5270899;28;20037;-83
2022/07/16 06:13:15;;;;;;;5.10;1.73;;;;;;;;;;5269398;28;20299;-84
2022/07/16 06:15:49;;;;;;;5.10;1.60;;;;;;;;;;5277968;28;20029;-84
2022/07/16 06:18:20;;;;;;;5.55;1.50;;;;;;;;;;5282559;28;20136;-84
2022/07/16 06:20:51;;;;;;;2.23;1.07;;;;;;;;;;5271391;28;20139;-84
2022/07/16 06:23:23;;;;;;;1.50;1.00;;;;;;;;;;5287413;28;20032;-84
2022/07/16 06:25:54;;;;;;;4.17;1.53;;;;;;;;;;5285938;28;20024;-84
2022/07/16 06:28:25;;;;;;;4.65;1.27;;;;;;;;;;5285791;28;20083;-84
2022/07/16 06:30:56;;;;;;;3.33;1.33;;;;;;;;;;5279100;28;20068;-83
2022/07/16 06:33:28;;;;;;;6.53;1.30;;;;;;;;;;5277168;28;20032;-84
2022/07/16 06:35:59;;;;;;;4.20;1.30;;;;;;;;;;5279327;28;20607;-83
2022/07/16 06:38:30;;;;;;;2.85;1.30;;;;;;;;;;5289339;28;20073;-84
2022/07/16 06:41:01;;;;;;;5.23;1.80;;;;;;;;;;5284902;28;20104;-84
2022/07/16 06:43:36;;;;;;;2.43;0.90;;;;;;;;;;5286128;28;20655;-84
2022/07/16 06:46:07;;;;;;;5.03;1.42;;;;;;;;;;5279083;28;20127;-83
2022/07/16 06:48:38;;;;;;;3.67;1.40;;;;;;;;;;5282365;28;20117;-84
2022/07/16 06:51:09;;;;;;;2.83;1.20;;;;;;;;;;5281241;28;20440;-83
2022/07/16 06:53:40;;;;;;;4.23;1.10;;;;;;;;;;5267206;28;20037;-84
2022/07/16 06:56:12;;;;;;;3.87;1.30;;;;;;;;;;5278353;28;20705;-84
2022/07/16 06:58:43;;;;;;;2.70;1.17;;;;;;;;;;5259752;28;20038;-84
2022/07/16 07:01:14;;;;;;;4.00;1.08;;;;;;;;;;5276606;28;20838;-83
2022/07/16 07:03:45;;;;;;;2.17;1.00;;;;;;;;;;5277910;28;20493;-84
2022/07/16 07:06:16;;;;;;;2.43;1.10;;;;;;;;;;5268558;28;20277;-83
2022/07/16 07:08:48;;;;;;;3.28;1.00;;;;;;;;;;5281107;28;20470;-84
2022/07/16 07:11:19;;;;;;;3.03;0.97;;;;;;;;;;5263752;28;20531;-83
2022/07/16 07:13:50;;;;;;;1.60;0.90;;;;;;;;;;5265030;28;20091;-83
2022/07/16 07:16:24;;;;;;;5.77;1.10;;;;;;;;;;5251889;28;20692;-83
2022/07/16 07:18:55;;;;;;;4.97;1.33;;;;;;;;;;5262202;28;20048;-84
2022/07/16 07:21:27;;;;;;;1.83;0.80;;;;;;;;;;5261904;28;20037;-84
2022/07/16 07:23:58;;;;;;;4.18;1.13;;;;;;;;;;5232543;28;20163;-84
2022/07/16 07:26:29;;;;;;;3.88;0.90;;;;;;;;;;5250702;28;20052;-83
2022/07/16 07:29:00;;;;;;;3.00;1.33;;;;;;;;;;5237831;28;20054;-83
2022/07/16 07:31:31;;;;;;;2.20;0.73;;;;;;;;;;5254163;28;20411;-83
2022/07/16 07:34:03;;;;;;;1.73;1.10;;;;;;;;;;5256658;28;20032;-82
2022/07/16 07:36:34;;;;;;;2.47;0.90;;;;;;;;;;5255959;28;20607;-83
2022/07/16 07:39:05;;;;;;;2.80;0.70;;;;;;;;;;5252631;28;20075;-83
2022/07/16 07:41:37;;;;;;;4.50;1.03;;;;;;;;;;5254576;28;20284;-82
2022/07/16 07:44:08;;;;;;;2.92;0.80;;;;;;;;;;5260919;28;20071;-83
2022/07/16 07:46:39;;;;;;;3.00;0.90;;;;;;;;;;5264670;28;20044;-84
2022/07/16 07:49:11;;;;;;;3.42;0.80;;;;;;;;;;5261982;28;20307;-84
2022/07/16 07:51:42;;;;;;;1.88;0.80;;;;;;;;;;5237592;28;20124;-83
2022/07/16 07:54:14;;;;;;;3.37;0.90;;;;;;;;;;5240500;28;20026;-82
2022/07/16 07:56:45;;;;;;;4.97;0.93;;;;;;;;;;5256574;28;20029;-82
2022/07/16 07:59:16;;;;;;;4.15;1.00;;;;;;;;;;5261963;28;20053;-83
2022/07/16 08:01:48;;;;;;;1.88;0.90;;;;;;;;;;5265563;28;20104;-83
2022/07/16 08:04:19;;;;;;;3.20;1.00;;;;;;;;;;5267488;28;20408;-83
2022/07/16 08:06:50;;;;;;;3.78;0.98;;;;;;;;;;5244789;28;20037;-83
2022/07/16 08:09:21;;;;;;;2.10;0.80;;;;;;;;;;5259787;28;20080;-83
2022/07/16 08:11:53;;;;;;;3.27;1.10;;;;;;;;;;5235685;28;20426;-84
2022/07/16 08:14:24;;;;;;;6.03;1.40;;;;;;;;;;5285490;28;20280;-83
2022/07/16 08:16:56;;;;;;;3.20;1.23;;;;;;;;;;5281247;28;20258;-83
2022/07/16 08:19:27;;;;;;;3.00;1.02;;;;;;;;;;5278994;28;20063;-84
2022/07/16 08:22:00;;;;;;;2.67;1.10;;;;;;;;;;5298896;28;20021;-84
2022/07/16 08:27:21;;;;;;;1.90;0.90;;;;;;;;;;5283003;28;20071;-83
2022/07/16 08:29:53;;;;;;;2.63;0.90;;;;;;;;;;5280975;28;20115;-84
2022/07/16 08:32:24;;;;;;;1.63;0.85;;;;;;;;;;5266129;28;20092;-84
2022/07/16 08:34:55;;;;;;;3.33;1.17;;;;;;;;;;5285271;28;20110;-83
2022/07/16 08:37:41;;;;;;;5.90;1.00;;;;;;;;;;5261270;28;20276;-84
2022/07/16 08:40:22;;;;;;;5.38;1.00;;;;;;;;;;5264014;28;20041;-83
2022/07/16 08:42:55;;;;;;;17.35;1.73;;;;;;;;;;5263611;28;20108;-82
2022/07/16 08:45:33;;;;;;;15.18;2.22;;;;;;;;;;5280599;28;20025;-84
2022/07/16 08:48:04;;;;;;;3.30;0.98;;;;;;;;;;5261378;28;20373;-84
2022/07/16 08:51:02;;;;;;;5.25;1.05;;;;;;;;;;5264486;28;20025;-84
2022/07/16 08:53:44;;;;;;;3.83;0.95;;;;;;;;;;5240682;28;20053;-84
2022/07/16 08:56:32;;;;;;;5.32;1.05;;;;;;;;;;5245477;28;20029;-84
2022/07/16 08:59:22;;;;;;;4.53;1.00;;;;;;;;;;5259688;28;20544;-84
2022/07/16 09:02:05;;;;;;;7.38;1.10;;;;;;;;;;5245463;28;20462;-84
2022/07/16 09:04:37;;;;;;;8.13;1.20;;;;;;;;;;5274970;28;20032;-82
2022/07/16 09:07:18;;;;;;;7.10;1.50;;;;;;;;;;5274730;28;20048;-84
2022/07/16 09:09:49;;;;;;;8.52;1.73;;;;;;;;;;5273365;28;20342;-81
2022/07/16 09:12:39;;;;;;;3.13;1.00;;;;;;;;;;5284021;28;20127;-81
2022/07/16 09:15:29;;;;;;;1.42;0.90;;;;;;;;;;5262907;28;20038;-82
2022/07/16 09:18:15;;;;;;;3.35;0.88;;;;;;;;;;5263842;28;20048;-82
2022/07/16 09:20:49;;;;;;;3.20;0.90;;;;;;;;;;5279912;28;20020;-82
2022/07/16 09:23:36;;;;;;;2.75;0.90;;;;;;;;;;5281867;28;20029;-82
2022/07/16 09:26:08;;;;;;;3.20;0.82;;;;;;;;;;5299351;28;20520;-83
2022/07/16 09:28:43;;;;;;;2.42;0.90;;;;;;;;;;5290101;28;20056;-83
2022/07/16 09:31:40;;;;;;;3.38;0.80;;;;;;;;;;5280317;28;20601;-83
2022/07/16 09:34:18;;;;;;;2.10;0.80;;;;;;;;;;5290861;28;20127;-83
2022/07/16 09:37:04;;;;;;;2.75;0.90;;;;;;;;;;5270179;28;20045;-82
2022/07/16 09:39:44;;;;;;;1.65;0.80;;;;;;;;;;5281986;28;20116;-84
2022/07/16 09:42:19;;;;;;;6.93;0.98;;;;;;;;;;5264885;28;20020;-83
2022/07/16 09:44:50;;;;;;;3.63;0.90;;;;;;;;;;5276650;28;20029;-83
2022/07/16 09:47:22;;;;;;;3.90;1.30;;;;;;;;;;5283355;28;20040;-83
2022/07/16 09:49:54;;;;;;;2.85;0.90;;;;;;;;;;5268439;28;20396;-83
2022/07/16 09:52:26;;;;;;;3.47;0.85;;;;;;;;;;5266931;28;20090;-83
2022/07/16 09:54:58;;;;;;;2.00;0.90;;;;;;;;;;5269222;28;20053;-84
2022/07/16 09:57:30;;;;;;;3.92;0.80;;;;;;;;;;5261521;28;20125;-82
2022/07/16 10:00:02;;;;;;;3.72;0.98;;;;;;;;;;5261977;28;20034;-82
2022/07/16 10:02:34;;;;;;;4.22;0.95;;;;;;;;;;5282051;28;20114;-83
2022/07/16 10:05:06;;;;;;;4.40;1.00;;;;;;;;;;5279153;28;20068;-83
2022/07/16 10:07:37;;;;;;;1.08;0.52;;;;;;;;;;5264026;28;20033;-82
2022/07/16 10:10:11;;;;;;;4.57;1.17;;;;;;;;;;5279360;28;20025;-83
2022/07/16 10:12:42;;;;;;;1.92;0.80;;;;;;;;;;5273013;28;20622;-82
2022/07/16 10:15:13;;;;;;;3.43;0.83;;;;;;;;;;5247167;28;20037;-82
2022/07/16 10:17:44;;;;;;;2.95;0.85;;;;;;;;;;5253444;28;20346;-82
2022/07/16 10:20:18;;;;;;;2.83;0.80;;;;;;;;;;5260892;28;20563;-83
2022/07/16 10:22:50;;;;;;;4.38;0.95;;;;;;;;;;5236043;28;20029;-83
2022/07/16 10:25:23;;;;;;;1.38;0.55;;;;;;;;;;5256744;28;20034;-83
2022/07/16 10:27:54;;;;;;;1.75;0.95;;;;;;;;;;5237268;28;20025;-81
2022/07/16 10:30:26;;;;;;;1.87;0.80;;;;;;;;;;5234814;28;20033;-83
2022/07/16 10:33:00;;;;;;;2.35;0.60;;;;;;;;;;5252802;28;20482;-83
2022/07/16 10:35:34;;;;;;;2.37;1.00;;;;;;;;;;5262117;28;20034;-82
2022/07/16 10:38:21;;;;;;;3.00;0.80;;;;;;;;;;5249324;28;20286;-83
2022/07/16 10:41:07;;;;;;;2.97;1.10;;;;;;;;;;5260244;28;20041;-82
2022/07/16 10:43:38;;;;;;;2.28;0.82;;;;;;;;;;5246130;28;20042;-83
2022/07/16 10:46:11;;;;;;;2.08;0.57;;;;;;;;;;5244678;28;20053;-83
2022/07/16 10:48:42;;;;;;;2.00;0.80;;;;;;;;;;5260933;28;20152;-84
2022/07/16 10:51:13;;;;;;;1.90;0.87;;;;;;;;;;5241086;28;20429;-83
2022/07/16 10:54:03;;;;;;;3.87;1.07;;;;;;;;;;5259144;28;20083;-83
2022/07/16 10:56:38;;;;;;;3.65;0.75;;;;;;;;;;5247473;28;20425;-82
2022/07/16 10:59:10;;;;;;;3.90;0.80;;;;;;;;;;5226807;28;20046;-84
2022/07/16 11:01:43;;;;;;;3.08;0.80;;;;;;;;;;5258385;28;20032;-83
2022/07/16 11:04:15;;;;;;;1.25;0.80;;;;;;;;;;5242949;28;20046;-83
2022/07/16 11:06:49;;;;;;;2.83;1.08;;;;;;;;;;5241751;28;20025;-83
2022/07/16 11:09:24;;;;;;;4.90;0.80;;;;;;;;;;5238350;28;20030;-83
2022/07/16 11:11:56;;;;;;;3.38;1.45;;;;;;;;;;5255639;28;20022;-83
2022/07/16 11:14:28;;;;;;;3.08;1.02;;;;;;;;;;5270548;28;20033;-83
2022/07/16 11:17:00;;;;;;;3.10;1.00;;;;;;;;;;5284142;28;20063;-84
2022/07/16 11:19:34;;;;;;;1.93;0.90;;;;;;;;;;5284165;28;20473;-84
2022/07/16 11:22:06;;;;;;;3.15;1.00;;;;;;;;;;5279583;28;20025;-84
2022/07/16 11:24:45;;;;;;;2.53;0.93;;;;;;;;;;5261255;28;20490;-83
2022/07/16 11:27:16;;;;;;;2.05;0.90;;;;;;;;;;5261244;28;20478;-83
2022/07/16 11:29:54;;;;;;;1.80;0.90;;;;;;;;;;5292878;28;20122;-83
2022/07/16 11:32:25;;;;;;;3.22;1.10;;;;;;;;;;5247266;28;20028;-84
2022/07/16 11:35:02;;;;;;;2.65;1.08;;;;;;;;;;5283048;28;20541;-82
2022/07/16 11:37:54;;;;;;;1.52;1.20;;;;;;;;;;5257990;28;20029;-83
2022/07/16 11:40:35;;;;;;;2.33;1.00;;;;;;;;;;5277805;28;20119;-83
2022/07/16 11:43:07;;;;;;;3.45;1.00;;;;;;;;;;5268502;28;20405;-83
2022/07/16 11:45:42;;;;;;;1.98;0.90;;;;;;;;;;5279211;28;20025;-83
2022/07/16 11:48:14;;;;;;;2.58;1.20;;;;;;;;;;5278454;28;20037;-83
2022/07/16 11:50:47;;;;;;;4.05;0.95;;;;;;;;;;5265312;28;20075;-85
2022/07/16 11:53:28;;;;;;;4.18;1.20;;;;;;;;;;5257929;28;20025;-83
2022/07/16 11:55:59;;;;;;;5.85;1.33;;;;;;;;;;5247477;28;20078;-83
2022/07/16 11:58:31;;;;;;;2.35;0.93;;;;;;;;;;5279553;28;20021;-83
2022/07/16 12:01:03;;;;;;;3.42;1.02;;;;;;;;;;5285690;28;20056;-83
2022/07/16 12:03:36;;;;;;;2.63;1.10;;;;;;;;;;5279317;28;20423;-84
2022/07/16 12:06:08;;;;;;;2.55;1.00;;;;;;;;;;5277745;28;20288;-84
2022/07/16 12:08:50;;;;;;;3.28;1.10;;;;;;;;;;5263643;28;20404;-83
2022/07/16 12:11:41;;;;;;;1.95;0.80;;;;;;;;;;5268717;28;20106;-85
2022/07/16 12:14:15;;;;;;;4.45;1.05;;;;;;;;;;5285309;28;20060;-82
2022/07/16 12:16:52;;;;;;;3.40;0.90;;;;;;;;;;5259197;28;20025;-83
2022/07/16 12:19:24;;;;;;;4.25;1.13;;;;;;;;;;5280843;28;20044;-83
2022/07/16 12:21:55;;;;;;;2.35;0.80;;;;;;;;;;5281734;28;20025;-84
2022/07/16 12:24:29;;;;;;;1.65;0.80;;;;;;;;;;5270123;28;20029;-84
2022/07/16 12:27:01;;;;;;;2.05;0.65;;;;;;;;;;5259107;28;20188;-84
2022/07/16 12:29:39;;;;;;;4.10;1.30;;;;;;;;;;5252974;28;20170;-84
2022/07/16 12:32:11;;;;;;;5.18;1.02;;;;;;;;;;5276600;28;20323;-84
2022/07/16 12:34:43;;;;;;;1.38;0.88;;;;;;;;;;5255267;28;20037;-81
2022/07/16 12:37:15;;;;;;;4.15;1.00;;;;;;;;;;5251973;28;20104;-84
2022/07/16 12:39:47;;;;;;;2.85;1.00;;;;;;;;;;5270782;28;20047;-85
2022/07/16 12:42:18;;;;;;;10.88;1.48;;;;;;;;;;5255832;28;20044;-83
2022/07/16 12:44:49;;;;;;;3.85;1.00;;;;;;;;;;5255710;28;20485;-83
2022/07/16 12:47:21;;;;;;;3.73;1.10;;;;;;;;;;5273213;28;20462;-84
2022/07/16 12:49:52;;;;;;;9.23;1.25;;;;;;;;;;5273522;28;20048;-83
2022/07/16 12:52:23;;;;;;;2.20;0.93;;;;;;;;;;5267698;28;20032;-83
2022/07/16 13:01:06;;;;;;;4.03;0.95;;;;;;;;;;5273351;28;20025;-83
2022/07/16 13:03:37;;;;;;;4.35;0.77;;;;;;;;;;5261794;28;20716;-82
2022/07/16 13:06:17;;;;;;;1.83;0.70;;;;;;;;;;5276513;28;20033;-83
2022/07/16 13:08:52;;;;;;;5.28;0.90;;;;;;;;;;5267532;28;20283;-84
2022/07/16 13:11:26;;;;;;;2.08;0.98;;;;;;;;;;5264493;28;20032;-81
2022/07/16 13:14:32;;;;;;;2.88;0.88;;;;;;;;;;5266031;28;21242;-82
2022/07/16 13:17:03;;;;;;;;;;;;;;;;;;5267966;28;20025;-83
2022/07/16 13:19:37;;;;;;;4.40;1.08;;;;;;;;;;5293812;28;19923;-83
2022/07/16 13:22:08;;;;;;;1.88;0.80;;;;;;;;;;5278308;28;20028;-83
2022/07/16 13:24:39;;;;;;;4.97;0.85;;;;;;;;;;5256522;28;20041;-84
2022/07/16 13:27:11;;;;;;;3.70;0.80;;;;;;;;;;5272324;28;20457;-84
2022/07/16 13:29:42;;;;;;;2.10;0.95;;;;;;;;;;5268297;28;20029;-84
2022/07/16 13:32:14;;;;;;;4.33;0.90;;;;;;;;;;5278932;28;20528;-84
2022/07/16 13:34:45;;;;;;;2.50;0.90;;;;;;;;;;5254209;28;20477;-83
2022/07/16 13:37:19;;;;;;;1.65;0.70;;;;;;;;;;5285690;28;20029;-84
2022/07/16 13:39:50;;;;;;;2.13;0.80;;;;;;;;;;5282764;28;20051;-83
2022/07/16 13:42:25;;;;;;;2.20;0.80;;;;;;;;;;5265884;28;20384;-83
2022/07/16 13:44:56;;;;;;;7.43;1.02;;;;;;;;;;5264295;28;20060;-83
2022/07/16 13:47:54;;;;;;;1.73;0.93;;;;;;;;;;5282831;28;20040;-84
2022/07/16 13:50:26;;;;;;;2.97;0.88;;;;;;;;;;5284472;28;20056;-84
2022/07/16 13:52:57;;;;;;;1.53;0.83;;;;;;;;;;5267043;28;20497;-84
2022/07/16 13:55:28;;;;;;;1.83;1.00;;;;;;;;;;5263024;28;20700;-83
2022/07/16 13:58:20;;;;;;;4.15;1.20;;;;;;;;;;5262453;28;20021;-84
2022/07/16 14:00:52;;;;;;;3.17;0.90;;;;;;;;;;5271388;28;20362;-84
2022/07/16 14:03:25;;;;;;;2.10;1.02;;;;;;;;;;5268098;28;20030;-83
2022/07/16 14:05:57;;;;;;;3.58;1.08;;;;;;;;;;5244799;28;20052;-83
2022/07/16 14:08:29;;;;;;;1.63;0.73;;;;;;;;;;5278328;28;20029;-84
2022/07/16 14:11:00;;;;;;;2.70;1.02;;;;;;;;;;5253078;28;20552;-83
2022/07/16 14:13:31;;;;;;;3.10;0.80;;;;;;;;;;5264690;28;20052;-84
2022/07/16 14:16:03;;;;;;;5.32;1.33;;;;;;;;;;5283287;28;20270;-83
2022/07/16 14:18:34;;;;;;;4.10;1.00;;;;;;;;;;5265300;28;20453;-83
2022/07/16 14:21:09;;;;;;;3.78;0.90;;;;;;;;;;5262901;28;20056;-84
2022/07/16 14:23:41;;;;;;;4.88;1.40;;;;;;;;;;5283220;28;20029;-84
2022/07/16 14:26:12;;;;;;;3.20;0.93;;;;;;;;;;5245991;28;20021;-84
2022/07/16 14:28:43;;;;;;;3.10;1.17;;;;;;;;;;5261580;28;20260;-84
2022/07/16 14:31:15;;;;;;;2.05;1.15;;;;;;;;;;5279520;28;20586;-84
2022/07/16 14:33:46;;;;;;;3.13;0.90;;;;;;;;;;5283936;28;20107;-83
2022/07/16 14:36:17;;;;;;;3.07;1.10;;;;;;;;;;5265417;28;20029;-84
2022/07/16 14:38:48;;;;;;;3.22;0.90;;;;;;;;;;5265196;28;20025;-84
2022/07/16 14:41:20;;;;;;;3.70;1.10;;;;;;;;;;5264123;28;20021;-84
2022/07/16 14:43:51;;;;;;;3.03;1.02;;;;;;;;;;5282657;28;20339;-84
2022/07/16 14:46:22;;;;;;;2.50;1.00;;;;;;;;;;5282609;28;20108;-84
2022/07/16 14:48:54;;;;;;;2.23;0.80;;;;;;;;;;5263928;28;20028;-84
2022/07/16 14:51:25;;;;;;;3.05;1.10;;;;;;;;;;5281574;28;20037;-84
2022/07/16 14:54:15;;;;;;;4.45;1.05;;;;;;;;;;5264328;28;20029;-87
2022/07/16 14:56:47;;;;;;;2.58;0.88;;;;;;;;;;5265388;28;20109;-82
2022/07/16 14:59:18;;;;;;;5.03;1.00;;;;;;;;;;5264121;28;20118;-83
2022/07/16 15:01:50;;;;;;;4.00;0.93;;;;;;;;;;5282629;28;20056;-85
2022/07/16 15:04:22;;;;;;;4.47;0.88;;;;;;;;;;5281706;28;20024;-83
2022/07/16 15:06:53;;;;;;;3.13;1.15;;;;;;;;;;5264278;28;20025;-83
2022/07/16 15:09:24;;;;;;;2.13;1.50;;;;;;;;;;5264647;28;20033;-83
2022/07/16 15:11:56;;;;;;;3.55;1.17;;;;;;;;;;5263156;28;20267;-82
2022/07/16 15:14:27;;;;;;;2.17;1.20;;;;;;;;;;5282263;28;20104;-83
2022/07/16 15:16:58;;;;;;;4.88;1.55;;;;;;;;;;5282538;28;20052;-83
2022/07/16 15:19:33;;;;;;;1.98;0.90;;;;;;;;;;5282066;28;20090;-83
2022/07/16 15:22:04;;;;;;;5.22;1.23;;;;;;;;;;5263806;28;20017;-83
2022/07/16 15:24:36;;;;;;;3.40;1.00;;;;;;;;;;5264161;28;20546;-84
2022/07/16 15:27:10;;;;;;;4.07;1.30;;;;;;;;;;5284012;28;20508;-84
2022/07/16 15:29:42;;;;;;;4.05;1.10;;;;;;;;;;5272544;28;20038;-84